Time;durP1;ratioP1;P1;durP2;ratioP2;P2;SDS_P1;SDS_P2;PMS_P1;PMS_P2;Temp;Humidity;BMP_temperature;BMP_pressure;BME280_temperature;BME280_humidity;BME280_pressure;Samples;Min_cycle;Max_cycle;Signal;HPM_P1;HPM_P2
2023/10/30 00:01:32;;;;;;;9.85;1.23;;;10.70;99.90;;;;;;4970759;28;20046;-76
2023/10/30 00:03:58;;;;;;;11.25;1.95;;;10.70;99.90;;;;;;4970567;28;20552;-76
2023/10/30 00:06:24;;;;;;;8.10;1.42;;;10.60;99.90;;;;;;4987846;28;20042;-76
2023/10/30 00:08:53;;;;;;;7.63;1.40;;;10.60;99.90;;;;;;4971672;28;20050;-77
2023/10/30 00:11:19;;;;;;;7.60;1.23;;;10.60;99.90;;;;;;4971571;28;20042;-76
2023/10/30 00:13:45;;;;;;;10.63;1.48;;;10.60;99.90;;;;;;4971939;28;20045;-78
2023/10/30 00:16:10;;;;;;;7.85;1.38;;;10.60;99.90;;;;;;4987766;28;20045;-77
2023/10/30 00:18:38;;;;;;;9.63;1.05;;;10.60;99.90;;;;;;4986027;28;20128;-77
2023/10/30 00:21:05;;;;;;;8.05;1.30;;;10.60;99.90;;;;;;4985846;28;20157;-77
2023/10/30 00:23:31;;;;;;;7.32;1.20;;;10.50;99.90;;;;;;4970153;28;20079;-77
2023/10/30 00:25:57;;;;;;;8.38;1.00;;;10.50;99.90;;;;;;4982727;28;20463;-77
2023/10/30 00:28:23;;;;;;;10.25;1.40;;;10.50;99.90;;;;;;4986513;28;20050;-75
2023/10/30 00:30:49;;;;;;;7.80;1.35;;;10.50;99.90;;;;;;4968811;28;20046;-75
2023/10/30 00:33:15;;;;;;;8.20;1.13;;;10.50;99.90;;;;;;4969908;28;20041;-76
2023/10/30 00:35:40;;;;;;;6.00;1.10;;;10.40;99.90;;;;;;4987915;28;20566;-77
2023/10/30 00:38:06;;;;;;;9.80;1.15;;;10.50;99.90;;;;;;4971345;28;20085;-75
2023/10/30 00:40:32;;;;;;;10.10;1.70;;;10.60;99.90;;;;;;4984154;28;20092;-76
2023/10/30 00:42:58;;;;;;;7.07;1.30;;;10.40;99.90;;;;;;4968452;28;20042;-77
2023/10/30 00:45:23;;;;;;;8.73;1.13;;;10.40;99.90;;;;;;4985325;28;20056;-76
2023/10/30 00:47:49;;;;;;;8.52;1.77;;;10.40;99.90;;;;;;4987357;28;20076;-77
2023/10/30 00:50:15;;;;;;;4.43;1.38;;;10.40;99.90;;;;;;4970389;28;20041;-77
2023/10/30 00:52:40;;;;;;;7.43;1.02;;;10.30;99.90;;;;;;4980573;28;20394;-77
2023/10/30 00:55:06;;;;;;;6.03;1.00;;;10.30;99.90;;;;;;4970747;28;20145;-76
2023/10/30 00:57:32;;;;;;;4.97;0.85;;;10.30;99.90;;;;;;4986692;28;20350;-77
2023/10/30 00:59:59;;;;;;;6.88;0.85;;;10.30;99.90;;;;;;4983514;28;20048;-76
2023/10/30 01:02:24;;;;;;;6.60;1.13;;;10.20;99.90;;;;;;4967220;28;20466;-75
2023/10/30 01:04:51;;;;;;;6.97;1.45;;;10.20;99.90;;;;;;4970909;28;20152;-76
2023/10/30 01:07:16;;;;;;;7.35;1.30;;;10.20;99.90;;;;;;4972839;28;20069;-77
2023/10/30 01:09:43;;;;;;;5.75;0.70;;;10.40;99.90;;;;;;4964088;28;20349;-77
2023/10/30 01:12:09;;;;;;;4.32;0.90;;;10.10;99.90;;;;;;4983859;28;20046;-78
2023/10/30 01:14:35;;;;;;;9.88;1.23;;;10.20;99.90;;;;;;4986442;28;20049;-77
2023/10/30 01:17:01;;;;;;;8.40;1.13;;;10.10;99.90;;;;;;4975266;28;20695;-77
2023/10/30 01:19:26;;;;;;;4.07;0.85;;;10.10;99.90;;;;;;4973707;28;20038;-76
2023/10/30 01:21:52;;;;;;;5.70;1.00;;;10.10;99.90;;;;;;4989949;28;20057;-77
2023/10/30 01:24:18;;;;;;;5.93;0.98;;;10.10;99.90;;;;;;4974734;28;20465;-77
2023/10/30 01:26:44;;;;;;;3.67;0.77;;;10.10;99.90;;;;;;4992548;28;20050;-76
2023/10/30 01:29:10;;;;;;;4.25;0.90;;;10.10;99.90;;;;;;4974385;28;20390;-78
2023/10/30 01:31:35;;;;;;;5.15;1.13;;;10.10;99.90;;;;;;4975347;28;20049;-77
2023/10/30 01:34:01;;;;;;;1.85;0.60;;;10.00;99.90;;;;;;4974158;28;20060;-76
2023/10/30 01:36:27;;;;;;;6.35;1.02;;;10.00;99.90;;;;;;4991994;28;20139;-76
2023/10/30 01:38:52;;;;;;;6.22;0.85;;;10.10;99.90;;;;;;4989223;28;20042;-76
2023/10/30 01:41:18;;;;;;;6.05;0.80;;;10.00;99.90;;;;;;4974615;28;20088;-76
2023/10/30 01:43:44;;;;;;;2.65;0.68;;;9.90;99.90;;;;;;4988911;28;20065;-76
2023/10/30 01:46:09;;;;;;;3.15;0.80;;;9.90;99.90;;;;;;4974585;28;20073;-76
2023/10/30 01:48:36;;;;;;;4.10;0.75;;;9.90;99.90;;;;;;4992349;28;20402;-76
2023/10/30 01:51:04;;;;;;;8.63;1.23;;;9.90;99.90;;;;;;4987682;28;20127;-77
2023/10/30 01:53:32;;;;;;;3.85;0.95;;;9.90;99.90;;;;;;4990146;28;20045;-76
2023/10/30 01:55:59;;;;;;;7.00;0.80;;;9.90;99.90;;;;;;4989666;28;20049;-76
2023/10/30 01:58:25;;;;;;;4.78;0.90;;;9.80;99.90;;;;;;4988754;28;20085;-76
2023/10/30 02:00:56;;;;;;;6.35;0.98;;;9.80;99.90;;;;;;4988641;28;20454;-76
2023/10/30 02:03:21;;;;;;;3.88;1.05;;;9.80;99.90;;;;;;4991457;28;20104;-76
2023/10/30 02:05:47;;;;;;;5.53;1.10;;;9.80;99.90;;;;;;4973891;28;20050;-76
2023/10/30 02:08:15;;;;;;;7.82;1.10;;;9.80;99.90;;;;;;4970973;28;20054;-76
2023/10/30 02:10:40;;;;;;;5.85;1.05;;;9.80;99.90;;;;;;4971669;28;20783;-77
2023/10/30 02:13:10;;;;;;;5.95;1.10;;;9.80;99.90;;;;;;4990115;28;20057;-75
2023/10/30 02:15:36;;;;;;;4.47;1.10;;;9.80;99.90;;;;;;4989985;28;20061;-76
2023/10/30 02:18:03;;;;;;;5.18;1.00;;;9.80;99.90;;;;;;4989687;28;20042;-77
2023/10/30 02:20:29;;;;;;;5.40;1.10;;;9.70;99.90;;;;;;4988332;28;20513;-76
2023/10/30 02:22:55;;;;;;;5.75;1.50;;;9.90;99.90;;;;;;4974524;28;20061;-77
2023/10/30 02:25:24;;;;;;;5.45;1.40;;;9.70;99.90;;;;;;4986789;28;20073;-77
2023/10/30 02:27:53;;;;;;;4.07;1.27;;;10.20;99.90;;;;;;4969824;28;20196;-77
2023/10/30 02:30:20;;;;;;;6.80;1.50;;;9.80;99.90;;;;;;4987870;28;20135;-76
2023/10/30 02:32:47;;;;;;;6.43;1.45;;;9.70;99.90;;;;;;4975362;28;20053;-76
2023/10/30 02:35:16;;;;;;;6.68;1.65;;;9.70;99.90;;;;;;4973277;28;20061;-78
2023/10/30 02:37:46;;;;;;;3.78;1.17;;;9.70;99.90;;;;;;4988074;28;20207;-77
2023/10/30 02:40:12;;;;;;;7.40;1.40;;;9.70;99.90;;;;;;4970776;28;20041;-76
2023/10/30 02:42:39;;;;;;;7.43;1.42;;;9.70;99.90;;;;;;4990501;28;20373;-76
2023/10/30 02:45:05;;;;;;;7.88;1.55;;;9.70;99.90;;;;;;4988257;28;20046;-76
2023/10/30 02:47:32;;;;;;;9.50;1.65;;;9.70;99.90;;;;;;4987159;28;20058;-75
2023/10/30 02:49:58;;;;;;;10.00;1.70;;;9.70;99.90;;;;;;4968918;28;20449;-77
2023/10/30 02:52:23;;;;;;;9.80;1.75;;;9.70;99.90;;;;;;4986091;28;20042;-75
2023/10/30 02:54:49;;;;;;;5.90;1.48;;;9.70;99.90;;;;;;4987785;28;20573;-75
2023/10/30 02:57:15;;;;;;;13.07;1.95;;;9.60;99.90;;;;;;4986384;28;20037;-76
2023/10/30 02:59:41;;;;;;;8.13;1.75;;;9.70;99.90;;;;;;4988244;28;20199;-77
2023/10/30 03:02:07;;;;;;;6.90;1.42;;;9.70;99.90;;;;;;4988407;28;20045;-78
2023/10/30 03:04:34;;;;;;;9.98;1.70;;;9.60;99.90;;;;;;4989160;28;20136;-76
2023/10/30 03:07:00;;;;;;;8.20;1.67;;;9.60;99.90;;;;;;4988767;28;20048;-75
2023/10/30 03:09:28;;;;;;;6.75;1.90;;;9.70;99.90;;;;;;4969123;28;20050;-76
2023/10/30 03:11:54;;;;;;;11.15;1.80;;;9.80;99.90;;;;;;4988865;28;20128;-78
2023/10/30 03:14:21;;;;;;;9.85;2.80;;;9.70;99.90;;;;;;4975390;28;20038;-76
2023/10/30 03:16:46;;;;;;;11.20;2.13;;;9.70;99.90;;;;;;4989957;28;20085;-75
2023/10/30 03:19:12;;;;;;;9.10;1.95;;;9.70;99.90;;;;;;4987348;28;20076;-75
2023/10/30 03:21:38;;;;;;;8.43;1.75;;;9.70;99.90;;;;;;4988855;28;20080;-76
2023/10/30 03:24:04;;;;;;;14.00;2.50;;;9.70;99.90;;;;;;4973667;28;20458;-76
2023/10/30 03:26:30;;;;;;;8.43;1.65;;;9.70;99.90;;;;;;4990643;28;20057;-77
2023/10/30 03:28:56;;;;;;;10.65;1.90;;;9.70;99.90;;;;;;4990099;28;20118;-77
2023/10/30 03:31:23;;;;;;;11.07;2.22;;;9.70;99.90;;;;;;4987880;28;20100;-75
2023/10/30 03:33:49;;;;;;;13.73;3.15;;;9.70;99.90;;;;;;4975173;28;20069;-75
2023/10/30 03:36:19;;;;;;;12.05;1.75;;;9.70;99.90;;;;;;4988793;28;20088;-77
2023/10/30 03:38:45;;;;;;;8.57;1.50;;;9.70;99.90;;;;;;4987942;28;20053;-74
2023/10/30 03:41:11;;;;;;;10.10;1.67;;;9.70;99.90;;;;;;4971876;28;20042;-77
2023/10/30 03:43:36;;;;;;;10.18;1.80;;;9.70;99.90;;;;;;4984002;28;20041;-76
2023/10/30 03:46:02;;;;;;;10.15;2.03;;;9.70;99.90;;;;;;4993988;28;20045;-78
2023/10/30 03:48:28;;;;;;;9.27;1.95;;;9.60;99.90;;;;;;4989150;28;20053;-75
2023/10/30 03:50:54;;;;;;;11.45;2.33;;;9.70;99.90;;;;;;4988331;28;20060;-77
2023/10/30 03:53:19;;;;;;;12.70;2.33;;;9.60;99.90;;;;;;4974550;28;20049;-75
2023/10/30 03:55:45;;;;;;;10.82;1.95;;;9.60;99.90;;;;;;4990483;28;20128;-77
2023/10/30 03:58:12;;;;;;;10.65;2.17;;;9.70;99.90;;;;;;4990358;28;20184;-75
2023/10/30 04:00:37;;;;;;;10.55;1.73;;;9.60;99.90;;;;;;4988578;28;20133;-74
2023/10/30 04:03:03;;;;;;;11.43;1.92;;;9.60;99.90;;;;;;4973445;28;20141;-77
2023/10/30 04:05:29;;;;;;;9.38;2.05;;;9.60;99.90;;;;;;4972576;28;20037;-77
2023/10/30 04:07:55;;;;;;;14.55;2.00;;;10.00;99.90;;;;;;4988014;28;20076;-76
2023/10/30 04:10:24;;;;;;;9.55;1.75;;;9.60;99.90;;;;;;4973208;28;20045;-76
2023/10/30 04:12:49;;;;;;;6.82;1.63;;;9.60;99.90;;;;;;4972962;28;20045;-78
2023/10/30 04:15:17;;;;;;;10.80;1.80;;;9.60;99.90;;;;;;4992552;28;20809;-75
2023/10/30 04:17:44;;;;;;;12.85;2.13;;;9.60;99.90;;;;;;4990353;28;20051;-75
2023/10/30 04:20:10;;;;;;;11.85;1.83;;;9.60;99.90;;;;;;4986418;28;20049;-76
2023/10/30 04:22:35;;;;;;;14.23;1.98;;;9.60;99.90;;;;;;4973149;28;20044;-77
2023/10/30 04:25:02;;;;;;;13.45;1.85;;;9.60;99.90;;;;;;4967191;28;20042;-76
2023/10/30 04:27:28;;;;;;;14.70;1.98;;;9.60;99.90;;;;;;4970533;28;20433;-75
2023/10/30 04:29:54;;;;;;;9.75;1.83;;;9.60;99.90;;;;;;4984723;28;20143;-76
2023/10/30 04:32:21;;;;;;;11.60;2.08;;;9.60;99.90;;;;;;4988208;28;20058;-76
2023/10/30 04:34:46;;;;;;;11.93;1.75;;;9.60;99.90;;;;;;4986831;28;20045;-75
2023/10/30 04:37:13;;;;;;;10.80;2.00;;;9.60;99.90;;;;;;4985018;28;20270;-75
2023/10/30 04:39:39;;;;;;;13.30;2.17;;;9.60;99.90;;;;;;4969777;28;20061;-76
2023/10/30 04:42:05;;;;;;;12.32;2.53;;;9.60;99.90;;;;;;4971358;28;20033;-76
2023/10/30 04:44:31;;;;;;;14.07;2.25;;;9.60;99.90;;;;;;4986491;28;20105;-76
2023/10/30 04:46:57;;;;;;;14.68;1.50;;;9.60;99.90;;;;;;4987393;28;20111;-75
2023/10/30 04:49:22;;;;;;;13.02;2.05;;;9.60;99.90;;;;;;4970346;28;20193;-76
2023/10/30 04:51:48;;;;;;;11.35;1.80;;;9.60;99.90;;;;;;4986096;28;20060;-76
2023/10/30 04:54:14;;;;;;;14.32;2.30;;;9.60;99.90;;;;;;4986746;28;20045;-75
2023/10/30 04:56:39;;;;;;;13.68;2.42;;;9.60;99.90;;;;;;4972350;28;20046;-75
2023/10/30 04:59:05;;;;;;;10.65;1.63;;;9.50;99.90;;;;;;4989055;28;20099;-76
2023/10/30 05:01:31;;;;;;;16.02;2.22;;;9.60;99.90;;;;;;4973626;28;20433;-77
2023/10/30 05:03:57;;;;;;;8.57;1.83;;;9.80;99.90;;;;;;4974632;28;20355;-77
2023/10/30 05:06:23;;;;;;;11.68;1.83;;;9.50;99.90;;;;;;4977220;28;20116;-75
2023/10/30 05:08:48;;;;;;;7.35;1.70;;;9.60;99.90;;;;;;4974324;28;20833;-76
2023/10/30 05:11:14;;;;;;;14.98;2.00;;;9.90;99.90;;;;;;4991200;28;20080;-77
2023/10/30 05:13:40;;;;;;;11.48;1.88;;;9.60;99.90;;;;;;4973656;28;20049;-77
2023/10/30 05:16:06;;;;;;;10.85;2.25;;;9.60;99.90;;;;;;4990329;28;20042;-77
2023/10/30 05:18:31;;;;;;;15.43;2.50;;;9.60;99.90;;;;;;4975511;28;20053;-77
2023/10/30 05:20:57;;;;;;;14.30;1.80;;;9.60;99.90;;;;;;4987362;28;20041;-76
2023/10/30 05:23:24;;;;;;;16.40;2.20;;;9.50;99.90;;;;;;4989893;28;20104;-76
2023/10/30 05:25:50;;;;;;;10.93;1.67;;;9.50;99.90;;;;;;4974902;28;20618;-75
2023/10/30 05:28:18;;;;;;;8.70;2.08;;;9.60;99.90;;;;;;4974784;28;20125;-75
2023/10/30 05:30:44;;;;;;;9.25;1.90;;;9.50;99.90;;;;;;4988694;28;20518;-76
2023/10/30 05:33:10;;;;;;;12.23;1.73;;;9.50;99.90;;;;;;4987702;28;20055;-76
2023/10/30 05:35:35;;;;;;;17.10;2.35;;;9.80;99.90;;;;;;4971479;28;20046;-76
2023/10/30 05:38:04;;;;;;;14.52;2.08;;;9.50;99.90;;;;;;4978902;28;20037;-78
2023/10/30 05:40:29;;;;;;;12.98;2.40;;;9.50;99.90;;;;;;4971845;28;20520;-77
2023/10/30 05:42:55;;;;;;;12.65;1.98;;;9.80;99.90;;;;;;4973739;28;20065;-78
2023/10/30 05:45:21;;;;;;;14.13;1.95;;;9.40;99.90;;;;;;4973440;28;20573;-75
2023/10/30 05:47:48;;;;;;;16.58;1.88;;;9.50;99.90;;;;;;4991054;28;20046;-77
2023/10/30 05:50:13;;;;;;;7.40;1.63;;;9.60;99.90;;;;;;4989707;28;20391;-77
2023/10/30 05:52:39;;;;;;;13.27;1.83;;;9.40;99.90;;;;;;4971782;28;20069;-75
2023/10/30 05:55:07;;;;;;;10.80;2.00;;;9.40;99.90;;;;;;4987942;28;20042;-75
2023/10/30 05:57:34;;;;;;;12.07;1.77;;;9.40;99.90;;;;;;4987426;28;20045;-77
2023/10/30 06:00:00;;;;;;;10.40;1.77;;;9.40;99.90;;;;;;4971609;28;20069;-78
2023/10/30 06:02:26;;;;;;;13.57;1.55;;;9.40;99.90;;;;;;4965615;28;20187;-78
2023/10/30 06:04:52;;;;;;;12.65;2.33;;;9.40;99.90;;;;;;4973805;28;20068;-76
2023/10/30 06:07:17;;;;;;;11.15;1.80;;;9.40;99.90;;;;;;4974948;28;20101;-78
2023/10/30 06:09:45;;;;;;;10.75;1.77;;;9.50;99.90;;;;;;4974658;28;20502;-77
2023/10/30 06:12:11;;;;;;;11.30;2.08;;;9.30;99.90;;;;;;4956927;28;20069;-78
2023/10/30 06:14:36;;;;;;;16.83;1.95;;;9.40;99.90;;;;;;4980881;28;20050;-78
2023/10/30 06:17:03;;;;;;;14.02;2.10;;;9.40;99.90;;;;;;4974804;28;20045;-77
2023/10/30 06:19:28;;;;;;;14.98;1.90;;;9.40;99.90;;;;;;4960499;28;21343;-76
2023/10/30 06:21:54;;;;;;;9.25;2.10;;;9.40;99.90;;;;;;4966669;28;20392;-77
2023/10/30 06:24:20;;;;;;;15.88;2.08;;;9.50;99.90;;;;;;4978643;28;20463;-75
2023/10/30 06:26:49;;;;;;;12.95;1.80;;;9.30;99.90;;;;;;4975868;28;20049;-76
2023/10/30 06:29:15;;;;;;;15.30;2.95;;;9.30;99.90;;;;;;4987933;28;20033;-77
2023/10/30 06:31:40;;;;;;;12.02;2.92;;;9.30;99.90;;;;;;4987025;28;20164;-76
2023/10/30 06:34:06;;;;;;;14.07;2.20;;;9.30;99.90;;;;;;4975270;28;20080;-75
2023/10/30 06:36:32;;;;;;;12.25;2.08;;;9.30;99.90;;;;;;4989584;28;20054;-76
2023/10/30 06:39:00;;;;;;;15.02;3.65;;;9.30;99.90;;;;;;4973993;28;20058;-75
2023/10/30 06:41:26;;;;;;;14.55;2.10;;;10.00;99.90;;;;;;4975475;28;20042;-77
2023/10/30 06:43:52;;;;;;;13.13;2.08;;;9.30;99.90;;;;;;4960895;28;20969;-76
2023/10/30 06:46:17;;;;;;;13.90;2.03;;;9.30;99.90;;;;;;4969992;28;20046;-74
2023/10/30 06:48:43;;;;;;;15.93;2.28;;;9.50;99.90;;;;;;4957165;28;20100;-76
2023/10/30 06:51:09;;;;;;;15.23;2.53;;;9.30;99.90;;;;;;4966735;28;20641;-74
2023/10/30 06:53:36;;;;;;;16.25;2.63;;;9.40;99.90;;;;;;4957759;28;20149;-74
2023/10/30 06:56:01;;;;;;;14.30;1.90;;;9.30;99.90;;;;;;4965136;28;20138;-76
2023/10/30 06:58:27;;;;;;;12.35;2.33;;;9.30;99.90;;;;;;4969145;28;20049;-76
2023/10/30 07:01:02;;;;;;;11.45;1.88;;;9.30;99.90;;;;;;4967901;28;20046;-78
2023/10/30 07:03:28;;;;;;;17.58;3.00;;;9.30;99.90;;;;;;4959795;28;20121;-77
2023/10/30 07:05:53;;;;;;;10.75;2.47;;;9.40;99.90;;;;;;4966707;28;20052;-77
2023/10/30 07:08:19;;;;;;;14.68;2.13;;;9.50;99.90;;;;;;4981433;28;20042;-76
2023/10/30 07:10:45;;;;;;;16.65;2.42;;;9.40;99.90;;;;;;4983587;28;20052;-78
2023/10/30 07:13:10;;;;;;;17.75;2.78;;;9.50;99.90;;;;;;4963759;28;20270;-76
2023/10/30 07:15:36;;;;;;;14.85;2.30;;;9.50;99.90;;;;;;4987155;28;20081;-76
2023/10/30 07:18:02;;;;;;;16.55;3.13;;;9.50;99.90;;;;;;4966145;28;20045;-77
2023/10/30 07:20:28;;;;;;;13.43;2.38;;;9.60;99.90;;;;;;4966342;28;20438;-76
2023/10/30 07:22:53;;;;;;;13.07;2.20;;;9.60;99.90;;;;;;4960179;28;20495;-79
2023/10/30 07:25:19;;;;;;;11.35;2.83;;;9.70;99.90;;;;;;4975743;28;20503;-78
2023/10/30 07:27:45;;;;;;;14.35;2.92;;;9.90;99.90;;;;;;4975186;28;20061;-78
2023/10/30 07:30:11;;;;;;;15.95;2.30;;;9.90;99.90;;;;;;4981863;28;20050;-78
2023/10/30 07:32:36;;;;;;;16.63;2.83;;;9.80;99.90;;;;;;4984755;28;20439;-77
2023/10/30 07:35:03;;;;;;;13.60;2.50;;;9.80;99.90;;;;;;4970881;28;20049;-78
2023/10/30 07:37:29;;;;;;;14.10;2.17;;;9.90;99.90;;;;;;4964821;28;20527;-77
2023/10/30 07:39:54;;;;;;;13.80;2.55;;;9.90;99.90;;;;;;4988979;28;20045;-78
2023/10/30 07:42:20;;;;;;;14.68;2.08;;;9.90;99.90;;;;;;4993538;28;20061;-76
2023/10/30 07:44:46;;;;;;;13.52;2.40;;;10.00;99.90;;;;;;4973550;28;20057;-78
2023/10/30 07:47:12;;;;;;;12.13;2.10;;;10.10;99.90;;;;;;4992249;28;20042;-79
2023/10/30 07:49:37;;;;;;;16.25;2.40;;;10.10;99.90;;;;;;4984747;28;20101;-76
2023/10/30 07:52:03;;;;;;;19.38;2.38;;;10.20;99.90;;;;;;4983805;28;20045;-75
2023/10/30 07:54:29;;;;;;;10.88;2.13;;;10.30;99.90;;;;;;4983044;28;20092;-77
2023/10/30 07:56:55;;;;;;;11.55;2.10;;;10.30;99.90;;;;;;4980222;28;20499;-77
2023/10/30 07:59:21;;;;;;;16.25;2.03;;;10.40;99.90;;;;;;4967601;28;20057;-77
2023/10/30 08:01:50;;;;;;;18.52;2.10;;;10.40;99.90;;;;;;4982842;28;20057;-77
2023/10/30 08:04:16;;;;;;;15.77;2.42;;;10.50;99.90;;;;;;4964921;28;20053;-75
2023/10/30 08:06:42;;;;;;;12.82;2.40;;;10.60;99.90;;;;;;4980990;28;20402;-76
2023/10/30 08:09:08;;;;;;;16.15;2.58;;;10.60;99.90;;;;;;4969432;28;20132;-77
2023/10/30 08:11:35;;;;;;;11.82;2.10;;;10.70;99.90;;;;;;4980618;28;20060;-77
2023/10/30 08:14:01;;;;;;;9.32;1.58;;;10.70;99.90;;;;;;4964812;28;20056;-77
2023/10/30 08:16:26;;;;;;;13.07;2.97;;;10.80;99.90;;;;;;4982581;28;20038;-77
2023/10/30 08:18:52;;;;;;;12.75;2.20;;;10.80;99.90;;;;;;4983950;28;20038;-76
2023/10/30 08:21:18;;;;;;;14.25;2.28;;;10.80;99.90;;;;;;4971672;28;20074;-78
2023/10/30 08:23:43;;;;;;;12.05;2.10;;;10.90;99.90;;;;;;4988673;28;20057;-78
2023/10/30 08:26:09;;;;;;;12.73;2.20;;;10.90;99.90;;;;;;4990738;28;20526;-78
2023/10/30 08:28:35;;;;;;;13.23;2.03;;;11.00;99.90;;;;;;4985592;28;20058;-78
2023/10/30 08:31:02;;;;;;;13.25;2.45;;;11.00;99.90;;;;;;4989040;28;20549;-73
2023/10/30 08:33:28;;;;;;;11.23;1.92;;;11.00;99.90;;;;;;4984997;28;20045;-76
2023/10/30 08:35:54;;;;;;;11.68;2.22;;;11.30;99.90;;;;;;4967425;28;20058;-75
2023/10/30 08:38:20;;;;;;;10.60;2.47;;;11.10;99.90;;;;;;4988535;28;20088;-77
2023/10/30 08:40:46;;;;;;;15.60;2.75;;;11.40;99.90;;;;;;4983506;28;20061;-75
2023/10/30 08:43:12;;;;;;;13.20;2.22;;;11.20;99.90;;;;;;4982052;28;20041;-76
2023/10/30 08:45:38;;;;;;;16.55;2.53;;;11.20;99.90;;;;;;4993760;28;20499;-75
2023/10/30 08:48:04;;;;;;;16.55;2.15;;;11.30;99.90;;;;;;4975494;28;20375;-75
2023/10/30 08:50:30;;;;;;;15.27;2.70;;;11.30;99.90;;;;;;4969246;28;20316;-77
2023/10/30 08:52:56;;;;;;;11.63;2.30;;;11.40;99.90;;;;;;4982253;28;20049;-76
2023/10/30 08:55:22;;;;;;;9.60;1.77;;;11.40;99.90;;;;;;4979527;28;20034;-77
2023/10/30 08:57:48;;;;;;;14.20;2.70;;;11.40;99.90;;;;;;4962920;28;20160;-76
2023/10/30 09:00:14;;;;;;;10.63;2.28;;;11.50;99.90;;;;;;4980176;28;20038;-77
2023/10/30 09:02:40;;;;;;;13.60;2.42;;;11.50;99.90;;;;;;4977769;28;20034;-77
2023/10/30 09:05:05;;;;;;;12.75;1.80;;;11.50;99.90;;;;;;4975270;28;20050;-77
2023/10/30 09:07:31;;;;;;;12.00;2.50;;;11.60;99.90;;;;;;4967521;28;20104;-77
2023/10/30 09:09:57;;;;;;;12.18;2.63;;;11.90;99.90;;;;;;4968126;28;20045;-75
2023/10/30 09:12:23;;;;;;;14.18;2.10;;;11.70;99.90;;;;;;4980830;28;20057;-75
2023/10/30 09:14:49;;;;;;;12.43;2.05;;;11.70;99.90;;;;;;4966523;28;20042;-78
2023/10/30 09:17:15;;;;;;;14.38;2.33;;;11.70;99.90;;;;;;4968181;28;20046;-78
2023/10/30 09:19:41;;;;;;;15.65;2.45;;;11.80;99.90;;;;;;4967678;28;20662;-78
2023/10/30 09:22:06;;;;;;;14.45;2.40;;;11.70;99.90;;;;;;4965082;28;20054;-77
2023/10/30 09:24:32;;;;;;;11.15;2.42;;;11.80;99.90;;;;;;4990884;28;20049;-76
2023/10/30 09:26:58;;;;;;;11.80;2.17;;;11.80;99.90;;;;;;4983434;28;20046;-77
2023/10/30 09:29:26;;;;;;;13.82;2.60;;;11.80;99.90;;;;;;4984732;28;20123;-76
2023/10/30 09:31:52;;;;;;;14.68;2.35;;;11.80;99.90;;;;;;4978187;28;20084;-77
2023/10/30 09:34:18;;;;;;;13.68;1.90;;;11.80;99.90;;;;;;4984199;28;20065;-78
2023/10/30 09:36:44;;;;;;;16.80;2.58;;;11.80;99.90;;;;;;4985439;28;20049;-76
2023/10/30 09:39:09;;;;;;;16.40;3.00;;;11.80;99.90;;;;;;4973290;28;20559;-77
2023/10/30 09:41:43;;;;;;;18.33;3.20;;;11.90;99.90;;;;;;4974816;28;20045;-74
2023/10/30 09:44:10;;;;;;;14.15;2.53;;;11.80;99.90;;;;;;4993685;28;20048;-76
2023/10/30 09:46:39;;;;;;;15.45;2.20;;;11.80;99.90;;;;;;4976439;28;20046;-76
2023/10/30 09:49:10;;;;;;;17.92;2.20;;;11.90;99.90;;;;;;4976069;28;20057;-77
2023/10/30 09:51:37;;;;;;;11.02;2.30;;;11.90;99.90;;;;;;4969368;28;20057;-77
2023/10/30 09:54:05;;;;;;;18.70;2.28;;;12.00;99.90;;;;;;4988133;28;20052;-77
2023/10/30 09:56:32;;;;;;;17.88;2.55;;;12.10;99.90;;;;;;4984880;28;20065;-75
2023/10/30 09:58:59;;;;;;;11.95;2.42;;;12.10;99.90;;;;;;4973221;28;20034;-77
2023/10/30 10:01:26;;;;;;;11.48;2.13;;;12.20;99.90;;;;;;4969850;28;20141;-77
2023/10/30 10:03:52;;;;;;;15.98;2.58;;;12.20;99.90;;;;;;4986084;28;20045;-76
2023/10/30 10:06:18;;;;;;;12.90;2.20;;;12.20;99.90;;;;;;4987532;28;20046;-76
2023/10/30 10:08:46;;;;;;;14.68;2.20;;;12.30;99.90;;;;;;4971241;28;20050;-76
2023/10/30 10:11:11;;;;;;;17.70;2.53;;;12.30;99.90;;;;;;4991436;28;20046;-77
2023/10/30 10:13:38;;;;;;;16.52;2.75;;;12.40;99.90;;;;;;4987707;28;20050;-79
2023/10/30 10:16:04;;;;;;;15.25;2.40;;;12.50;99.90;;;;;;4983845;28;20140;-76
2023/10/30 10:18:35;;;;;;;12.75;2.10;;;12.50;99.90;;;;;;4969273;28;20099;-76
2023/10/30 10:21:08;;;;;;;15.82;2.38;;;12.60;99.90;;;;;;4969178;28;20469;-77
2023/10/30 10:23:34;;;;;;;13.05;2.00;;;12.60;99.90;;;;;;4979400;28;20052;-76
2023/10/30 10:26:03;;;;;;;8.85;1.88;;;12.60;99.90;;;;;;4980302;28;20542;-75
2023/10/30 10:28:30;;;;;;;12.98;1.90;;;12.70;99.90;;;;;;4965689;28;20042;-77
2023/10/30 10:30:56;;;;;;;13.95;2.30;;;12.80;99.90;;;;;;4970040;28;20152;-76
2023/10/30 10:33:24;;;;;;;12.25;1.98;;;12.80;99.90;;;;;;4979916;28;20042;-74
2023/10/30 10:36:08;;;;;;;12.82;2.40;;;12.80;99.90;;;;;;4981619;28;20080;-75
2023/10/30 10:38:35;;;;;;;12.40;2.08;;;12.90;99.90;;;;;;4961057;28;20045;-79
2023/10/30 10:41:01;;;;;;;12.63;2.50;;;12.90;99.90;;;;;;4994582;28;20141;-75
2023/10/30 10:43:28;;;;;;;16.08;2.20;;;13.00;99.90;;;;;;4975707;28;20042;-77
2023/10/30 10:45:55;;;;;;;13.57;2.08;;;13.00;99.90;;;;;;4970034;28;20502;-78
2023/10/30 10:48:23;;;;;;;12.05;2.35;;;13.00;99.90;;;;;;4980541;28;20045;-77
2023/10/30 10:50:49;;;;;;;13.18;2.70;;;13.20;99.90;;;;;;4986072;28;20084;-74
2023/10/30 10:53:18;;;;;;;14.63;2.25;;;13.10;99.90;;;;;;4989143;28;20065;-75
2023/10/30 10:55:46;;;;;;;10.60;1.77;;;13.10;99.90;;;;;;4972557;28;20503;-76
2023/10/30 10:58:19;;;;;;;13.70;2.95;;;13.20;99.90;;;;;;4974781;28;20046;-76
2023/10/30 11:00:47;;;;;;;15.68;2.58;;;13.10;99.90;;;;;;4972622;28;20491;-78
2023/10/30 11:03:14;;;;;;;8.57;1.80;;;13.20;99.90;;;;;;4973801;28;20045;-77
2023/10/30 11:05:40;;;;;;;17.73;2.70;;;13.20;99.90;;;;;;4964129;28;20050;-78
2023/10/30 11:08:30;;;;;;;10.80;2.17;;;13.20;99.90;;;;;;4981513;28;20514;-78
2023/10/30 11:11:21;;;;;;;13.50;2.03;;;13.20;99.90;;;;;;4986820;28;20128;-77
2023/10/30 11:14:44;;;;;;;17.80;3.28;;;13.30;99.90;;;;;;4969996;28;20499;-76
2023/10/30 11:17:10;;;;;;;10.93;1.83;;;13.30;99.90;;;;;;4931528;29;20059;-77
2023/10/30 11:19:38;;;;;;;15.93;2.42;;;13.30;99.90;;;;;;4912817;29;20121;-76
2023/10/30 11:22:04;;;;;;;15.18;2.28;;;13.40;99.90;;;;;;4937421;28;20054;-77
2023/10/30 11:24:43;;;;;;;15.30;2.42;;;13.30;99.90;;;;;;4972483;28;20407;-75
2023/10/30 11:27:27;;;;;;;11.77;2.85;;;13.50;99.90;;;;;;4970646;28;20041;-75
2023/10/30 11:29:55;;;;;;;10.38;1.90;;;13.30;99.90;;;;;;4974027;28;20056;-77
2023/10/30 11:32:23;;;;;;;15.45;2.58;;;13.30;99.90;;;;;;4976015;28;20053;-78
2023/10/30 11:34:49;;;;;;;19.02;2.42;;;13.50;99.90;;;;;;4987428;28;20123;-77
2023/10/30 11:37:17;;;;;;;13.82;2.10;;;13.40;99.90;;;;;;4962510;28;20038;-77
2023/10/30 11:39:45;;;;;;;13.82;2.15;;;13.40;99.90;;;;;;4985141;28;20053;-77
2023/10/30 11:42:24;;;;;;;13.15;2.17;;;13.40;99.90;;;;;;4983500;28;20049;-76
2023/10/30 11:45:12;;;;;;;15.90;2.50;;;13.40;99.90;;;;;;4981766;28;20062;-75
2023/10/30 11:47:38;;;;;;;13.93;2.03;;;13.40;99.90;;;;;;4969097;28;20434;-76
2023/10/30 11:50:04;;;;;;;12.77;2.05;;;13.40;99.90;;;;;;4988464;28;20717;-77
2023/10/30 11:52:33;;;;;;;17.45;2.38;;;13.40;99.90;;;;;;4991426;28;20053;-76
2023/10/30 11:55:07;;;;;;;12.45;2.17;;;13.40;99.90;;;;;;4981007;28;20048;-77
2023/10/30 11:57:36;;;;;;;12.75;2.15;;;13.40;99.90;;;;;;4983078;28;20113;-77
2023/10/30 12:00:03;;;;;;;13.38;1.77;;;13.50;99.90;;;;;;4986605;28;20297;-78
2023/10/30 12:02:28;;;;;;;12.32;1.88;;;13.50;99.90;;;;;;4988476;28;20486;-75
2023/10/30 12:05:03;;;;;;;15.52;2.22;;;13.50;99.90;;;;;;4970245;28;20231;-77
2023/10/30 12:07:29;;;;;;;15.57;2.53;;;13.50;99.90;;;;;;4977140;28;20757;-76
2023/10/30 12:09:55;;;;;;;10.90;2.22;;;13.70;99.90;;;;;;4979442;28;20143;-76
2023/10/30 12:12:23;;;;;;;11.77;2.40;;;13.50;99.90;;;;;;4971591;28;20418;-76
2023/10/30 12:14:48;;;;;;;19.05;2.22;;;13.60;99.90;;;;;;4970110;28;20046;-77
2023/10/30 12:17:15;;;;;;;13.85;1.98;;;13.50;99.90;;;;;;4972117;28;20594;-76
2023/10/30 12:19:43;;;;;;;13.95;2.42;;;13.60;99.90;;;;;;4986506;28;20058;-74
2023/10/30 12:22:09;;;;;;;11.23;2.53;;;13.60;99.90;;;;;;4955108;28;20483;-76
2023/10/30 12:24:34;;;;;;;8.20;1.85;;;13.50;99.90;;;;;;4972558;28;20136;-75
2023/10/30 12:27:00;;;;;;;13.38;2.13;;;13.50;99.90;;;;;;4970058;28;20100;-75
2023/10/30 12:29:26;;;;;;;9.90;1.98;;;13.50;99.90;;;;;;4972593;28;20418;-77
2023/10/30 12:32:02;;;;;;;12.20;2.08;;;13.50;99.90;;;;;;4955678;28;20047;-77
2023/10/30 12:34:30;;;;;;;12.70;2.50;;;13.50;99.90;;;;;;4980578;28;20058;-76
2023/10/30 12:36:56;;;;;;;10.93;1.95;;;13.50;99.90;;;;;;4975074;28;20050;-76
2023/10/30 12:39:22;;;;;;;12.40;2.65;;;13.50;99.90;;;;;;4966943;28;20050;-77
2023/10/30 12:41:53;;;;;;;10.25;2.20;;;13.50;99.90;;;;;;4956307;28;20041;-77
2023/10/30 12:44:20;;;;;;;15.98;2.50;;;13.40;99.90;;;;;;4955323;28;20046;-77